sensor_id;sensor_type;location;lat;lon;timestamp;P1;durP1;ratioP1;P2;durP2;ratioP2
8544;SDS011;4310;51.054;6.994;2022-08-11T00:00:00;3.40;;;2.83;;
8544;SDS011;4310;51.054;6.994;2022-08-11T00:03:28;3.67;;;3.00;;
8544;SDS011;4310;51.054;6.994;2022-08-11T00:04:34;3.83;;;2.92;;
8544;SDS011;4310;51.054;6.994;2022-08-11T00:05:43;3.30;;;3.00;;
8544;SDS011;4310;51.054;6.994;2022-08-11T00:06:47;4.53;;;2.70;;
8544;SDS011;4310;51.054;6.994;2022-08-11T00:07:52;3.05;;;2.72;;
8544;SDS011;4310;51.054;6.994;2022-08-11T00:08:56;3.77;;;3.00;;
8544;SDS011;4310;51.054;6.994;2022-08-11T00:10:00;3.27;;;2.95;;
8544;SDS011;4310;51.054;6.994;2022-08-11T00:11:05;3.12;;;2.83;;
8544;SDS011;4310;51.054;6.994;2022-08-11T00:12:12;4.00;;;2.90;;
8544;SDS011;4310;51.054;6.994;2022-08-11T00:13:16;3.20;;;2.80;;
8544;SDS011;4310;51.054;6.994;2022-08-11T00:14:22;4.15;;;2.60;;
8544;SDS011;4310;51.054;6.994;2022-08-11T00:15:27;4.75;;;2.98;;
8544;SDS011;4310;51.054;6.994;2022-08-11T00:16:31;5.20;;;3.00;;
8544;SDS011;4310;51.054;6.994;2022-08-11T00:17:36;3.77;;;3.00;;
8544;SDS011;4310;51.054;6.994;2022-08-11T00:18:40;3.10;;;2.80;;
8544;SDS011;4310;51.054;6.994;2022-08-11T00:19:45;3.37;;;2.90;;
8544;SDS011;4310;51.054;6.994;2022-08-11T00:22:01;2.90;;;2.55;;
8544;SDS011;4310;51.054;6.994;2022-08-11T00:23:06;4.45;;;3.10;;
8544;SDS011;4310;51.054;6.994;2022-08-11T00:24:10;3.00;;;2.67;;
8544;SDS011;4310;51.054;6.994;2022-08-11T00:25:15;4.45;;;2.98;;
8544;SDS011;4310;51.054;6.994;2022-08-11T00:26:19;3.45;;;2.87;;
8544;SDS011;4310;51.054;6.994;2022-08-11T00:27:30;3.40;;;2.70;;
8544;SDS011;4310;51.054;6.994;2022-08-11T00:29:51;4.00;;;2.77;;
8544;SDS011;4310;51.054;6.994;2022-08-11T00:32:07;4.08;;;3.27;;
8544;SDS011;4310;51.054;6.994;2022-08-11T00:33:12;3.08;;;2.70;;
8544;SDS011;4310;51.054;6.994;2022-08-11T00:34:17;3.20;;;2.80;;
8544;SDS011;4310;51.054;6.994;2022-08-11T00:35:23;3.62;;;3.00;;
8544;SDS011;4310;51.054;6.994;2022-08-11T00:36:28;3.12;;;2.75;;
8544;SDS011;4310;51.054;6.994;2022-08-11T00:37:32;3.10;;;2.80;;
8544;SDS011;4310;51.054;6.994;2022-08-11T00:38:38;3.20;;;2.90;;
8544;SDS011;4310;51.054;6.994;2022-08-11T00:41:10;3.52;;;2.80;;
8544;SDS011;4310;51.054;6.994;2022-08-11T00:42:15;3.00;;;2.75;;
8544;SDS011;4310;51.054;6.994;2022-08-11T00:43:21;4.50;;;3.00;;
8544;SDS011;4310;51.054;6.994;2022-08-11T00:44:27;3.22;;;3.00;;
8544;SDS011;4310;51.054;6.994;2022-08-11T00:45:34;3.60;;;2.90;;
8544;SDS011;4310;51.054;6.994;2022-08-11T00:46:41;3.25;;;3.00;;
8544;SDS011;4310;51.054;6.994;2022-08-11T00:47:51;3.72;;;2.90;;
8544;SDS011;4310;51.054;6.994;2022-08-11T00:48:58;3.43;;;2.60;;
8544;SDS011;4310;51.054;6.994;2022-08-11T00:50:04;3.25;;;2.75;;
8544;SDS011;4310;51.054;6.994;2022-08-11T00:51:12;4.85;;;2.90;;
8544;SDS011;4310;51.054;6.994;2022-08-11T00:52:18;3.30;;;2.90;;
8544;SDS011;4310;51.054;6.994;2022-08-11T00:56:12;3.33;;;3.12;;
8544;SDS011;4310;51.054;6.994;2022-08-11T00:57:21;4.23;;;3.10;;
8544;SDS011;4310;51.054;6.994;2022-08-11T00:58:39;3.35;;;3.05;;
8544;SDS011;4310;51.054;6.994;2022-08-11T00:59:51;3.77;;;3.47;;
8544;SDS011;4310;51.054;6.994;2022-08-11T01:02:13;3.40;;;3.10;;
8544;SDS011;4310;51.054;6.994;2022-08-11T01:03:18;6.90;;;3.35;;
8544;SDS011;4310;51.054;6.994;2022-08-11T01:04:29;4.55;;;4.10;;
8544;SDS011;4310;51.054;6.994;2022-08-11T01:05:44;4.37;;;3.52;;
8544;SDS011;4310;51.054;6.994;2022-08-11T01:06:51;4.97;;;4.50;;
8544;SDS011;4310;51.054;6.994;2022-08-11T01:09:27;3.65;;;3.10;;
8544;SDS011;4310;51.054;6.994;2022-08-11T01:10:45;3.60;;;3.30;;
8544;SDS011;4310;51.054;6.994;2022-08-11T01:12:08;3.80;;;3.42;;
8544;SDS011;4310;51.054;6.994;2022-08-11T01:13:13;4.78;;;3.55;;
8544;SDS011;4310;51.054;6.994;2022-08-11T01:18:33;4.15;;;3.67;;
8544;SDS011;4310;51.054;6.994;2022-08-11T01:19:45;3.60;;;3.30;;
8544;SDS011;4310;51.054;6.994;2022-08-11T01:21:02;4.12;;;3.72;;
8544;SDS011;4310;51.054;6.994;2022-08-11T01:25:18;3.70;;;3.40;;
8544;SDS011;4310;51.054;6.994;2022-08-11T01:27:50;5.25;;;3.62;;
8544;SDS011;4310;51.054;6.994;2022-08-11T01:30:23;5.63;;;3.60;;
8544;SDS011;4310;51.054;6.994;2022-08-11T01:31:32;3.95;;;3.65;;
8544;SDS011;4310;51.054;6.994;2022-08-11T01:34:18;4.10;;;3.65;;
8544;SDS011;4310;51.054;6.994;2022-08-11T01:35:29;4.28;;;3.50;;
8544;SDS011;4310;51.054;6.994;2022-08-11T01:41:02;3.87;;;3.50;;
8544;SDS011;4310;51.054;6.994;2022-08-11T01:42:21;4.33;;;3.70;;
8544;SDS011;4310;51.054;6.994;2022-08-11T01:43:58;5.22;;;3.62;;
8544;SDS011;4310;51.054;6.994;2022-08-11T01:45:25;4.33;;;3.52;;
8544;SDS011;4310;51.054;6.994;2022-08-11T01:46:31;5.72;;;3.65;;
8544;SDS011;4310;51.054;6.994;2022-08-11T01:47:37;3.90;;;3.42;;
8544;SDS011;4310;51.054;6.994;2022-08-11T01:49:00;5.12;;;3.83;;
8544;SDS011;4310;51.054;6.994;2022-08-11T01:50:04;3.98;;;3.42;;
8544;SDS011;4310;51.054;6.994;2022-08-11T01:51:14;4.03;;;3.70;;
8544;SDS011;4310;51.054;6.994;2022-08-11T01:52:19;5.60;;;3.67;;
8544;SDS011;4310;51.054;6.994;2022-08-11T01:53:29;6.40;;;3.80;;
8544;SDS011;4310;51.054;6.994;2022-08-11T01:54:36;4.17;;;3.58;;
8544;SDS011;4310;51.054;6.994;2022-08-11T01:55:42;4.80;;;3.52;;
8544;SDS011;4310;51.054;6.994;2022-08-11T01:56:53;4.50;;;3.40;;
8544;SDS011;4310;51.054;6.994;2022-08-11T01:57:54;3.85;;;3.50;;
8544;SDS011;4310;51.054;6.994;2022-08-11T02:00:11;5.85;;;3.70;;
8544;SDS011;4310;51.054;6.994;2022-08-11T02:01:21;4.83;;;3.58;;
8544;SDS011;4310;51.054;6.994;2022-08-11T02:02:30;4.15;;;3.70;;
8544;SDS011;4310;51.054;6.994;2022-08-11T02:05:02;4.30;;;3.70;;
8544;SDS011;4310;51.054;6.994;2022-08-11T02:06:10;4.10;;;3.80;;
8544;SDS011;4310;51.054;6.994;2022-08-11T02:07:34;4.12;;;3.72;;
8544;SDS011;4310;51.054;6.994;2022-08-11T02:08:44;4.00;;;3.60;;
8544;SDS011;4310;51.054;6.994;2022-08-11T02:09:52;4.95;;;3.67;;
8544;SDS011;4310;51.054;6.994;2022-08-11T02:10:56;5.00;;;3.90;;
8544;SDS011;4310;51.054;6.994;2022-08-11T02:12:26;6.45;;;4.15;;
8544;SDS011;4310;51.054;6.994;2022-08-11T02:13:31;4.58;;;3.67;;
8544;SDS011;4310;51.054;6.994;2022-08-11T02:14:38;4.25;;;3.85;;
8544;SDS011;4310;51.054;6.994;2022-08-11T02:15:42;4.30;;;3.90;;
8544;SDS011;4310;51.054;6.994;2022-08-11T02:18:12;5.55;;;3.92;;
8544;SDS011;4310;51.054;6.994;2022-08-11T02:19:19;5.08;;;3.98;;
8544;SDS011;4310;51.054;6.994;2022-08-11T02:20:42;4.53;;;3.70;;
8544;SDS011;4310;51.054;6.994;2022-08-11T02:22:04;4.30;;;3.90;;
8544;SDS011;4310;51.054;6.994;2022-08-11T02:23:28;3.83;;;3.50;;
8544;SDS011;4310;51.054;6.994;2022-08-11T02:24:45;5.08;;;3.80;;
8544;SDS011;4310;51.054;6.994;2022-08-11T02:25:52;4.17;;;3.75;;
8544;SDS011;4310;51.054;6.994;2022-08-11T02:26:56;4.90;;;3.90;;
8544;SDS011;4310;51.054;6.994;2022-08-11T02:28:03;4.25;;;3.80;;
8544;SDS011;4310;51.054;6.994;2022-08-11T02:30:22;4.42;;;4.00;;
8544;SDS011;4310;51.054;6.994;2022-08-11T02:31:28;3.77;;;3.47;;
8544;SDS011;4310;51.054;6.994;2022-08-11T02:32:50;5.12;;;3.50;;
8544;SDS011;4310;51.054;6.994;2022-08-11T02:34:15;4.60;;;3.50;;
8544;SDS011;4310;51.054;6.994;2022-08-11T02:35:21;4.20;;;3.83;;
8544;SDS011;4310;51.054;6.994;2022-08-11T02:36:31;3.98;;;3.60;;
8544;SDS011;4310;51.054;6.994;2022-08-11T02:37:36;4.50;;;3.90;;
8544;SDS011;4310;51.054;6.994;2022-08-11T02:38:42;4.10;;;3.63;;
8544;SDS011;4310;51.054;6.994;2022-08-11T02:39:48;4.08;;;3.70;;
8544;SDS011;4310;51.054;6.994;2022-08-11T02:42:06;4.35;;;3.77;;
8544;SDS011;4310;51.054;6.994;2022-08-11T02:43:27;5.45;;;3.33;;
8544;SDS011;4310;51.054;6.994;2022-08-11T02:44:33;4.37;;;3.98;;
8544;SDS011;4310;51.054;6.994;2022-08-11T02:45:40;4.17;;;3.75;;
8544;SDS011;4310;51.054;6.994;2022-08-11T02:46:48;4.50;;;3.72;;
8544;SDS011;4310;51.054;6.994;2022-08-11T02:47:53;4.33;;;3.60;;
8544;SDS011;4310;51.054;6.994;2022-08-11T02:49:18;4.62;;;3.80;;
8544;SDS011;4310;51.054;6.994;2022-08-11T02:50:41;4.92;;;3.80;;
8544;SDS011;4310;51.054;6.994;2022-08-11T02:51:53;4.53;;;3.85;;
8544;SDS011;4310;51.054;6.994;2022-08-11T02:52:57;5.45;;;3.92;;
8544;SDS011;4310;51.054;6.994;2022-08-11T02:54:07;5.00;;;3.42;;
8544;SDS011;4310;51.054;6.994;2022-08-11T02:55:17;4.20;;;3.80;;
8544;SDS011;4310;51.054;6.994;2022-08-11T02:57:36;3.80;;;3.50;;
8544;SDS011;4310;51.054;6.994;2022-08-11T02:58:44;6.12;;;3.90;;
8544;SDS011;4310;51.054;6.994;2022-08-11T02:59:48;5.53;;;3.70;;
8544;SDS011;4310;51.054;6.994;2022-08-11T03:00:54;7.62;;;3.95;;
8544;SDS011;4310;51.054;6.994;2022-08-11T03:02:09;5.50;;;3.95;;
8544;SDS011;4310;51.054;6.994;2022-08-11T03:03:09;6.45;;;3.75;;
8544;SDS011;4310;51.054;6.994;2022-08-11T03:04:12;4.72;;;3.60;;
8544;SDS011;4310;51.054;6.994;2022-08-11T03:05:23;4.92;;;3.55;;
8544;SDS011;4310;51.054;6.994;2022-08-11T03:06:30;4.85;;;3.75;;
8544;SDS011;4310;51.054;6.994;2022-08-11T03:07:38;4.20;;;3.80;;
8544;SDS011;4310;51.054;6.994;2022-08-11T03:09:59;4.00;;;3.60;;
8544;SDS011;4310;51.054;6.994;2022-08-11T03:12:17;7.65;;;3.80;;
8544;SDS011;4310;51.054;6.994;2022-08-11T03:13:40;4.12;;;3.62;;
8544;SDS011;4310;51.054;6.994;2022-08-11T03:15:02;5.20;;;4.12;;
8544;SDS011;4310;51.054;6.994;2022-08-11T03:16:24;7.80;;;3.95;;
8544;SDS011;4310;51.054;6.994;2022-08-11T03:17:51;7.70;;;4.20;;
8544;SDS011;4310;51.054;6.994;2022-08-11T03:18:55;4.72;;;3.90;;
8544;SDS011;4310;51.054;6.994;2022-08-11T03:20:05;4.40;;;4.00;;
8544;SDS011;4310;51.054;6.994;2022-08-11T03:21:09;5.67;;;3.90;;
8544;SDS011;4310;51.054;6.994;2022-08-11T03:22:16;4.50;;;4.10;;
8544;SDS011;4310;51.054;6.994;2022-08-11T03:23:22;5.33;;;3.98;;
8544;SDS011;4310;51.054;6.994;2022-08-11T03:24:28;4.60;;;4.20;;
8544;SDS011;4310;51.054;6.994;2022-08-11T03:25:35;5.83;;;4.30;;
8544;SDS011;4310;51.054;6.994;2022-08-11T03:26:41;4.62;;;3.75;;
8544;SDS011;4310;51.054;6.994;2022-08-11T03:27:47;4.47;;;4.00;;
8544;SDS011;4310;51.054;6.994;2022-08-11T03:28:52;6.42;;;3.85;;
8544;SDS011;4310;51.054;6.994;2022-08-11T03:30:02;5.05;;;4.17;;
8544;SDS011;4310;51.054;6.994;2022-08-11T03:31:07;6.05;;;4.28;;
8544;SDS011;4310;51.054;6.994;2022-08-11T03:32:18;4.80;;;4.03;;
8544;SDS011;4310;51.054;6.994;2022-08-11T03:33:22;4.40;;;4.00;;
8544;SDS011;4310;51.054;6.994;2022-08-11T03:34:44;8.23;;;4.40;;
8544;SDS011;4310;51.054;6.994;2022-08-11T03:35:53;5.05;;;4.00;;
8544;SDS011;4310;51.054;6.994;2022-08-11T03:37:17;5.53;;;4.17;;
8544;SDS011;4310;51.054;6.994;2022-08-11T03:39:00;7.15;;;4.22;;
8544;SDS011;4310;51.054;6.994;2022-08-11T03:41:20;7.20;;;4.40;;
8544;SDS011;4310;51.054;6.994;2022-08-11T03:42:45;5.15;;;4.30;;
8544;SDS011;4310;51.054;6.994;2022-08-11T03:43:52;4.62;;;4.20;;
8544;SDS011;4310;51.054;6.994;2022-08-11T03:45:02;4.92;;;4.03;;
8544;SDS011;4310;51.054;6.994;2022-08-11T03:46:07;8.33;;;4.30;;
8544;SDS011;4310;51.054;6.994;2022-08-11T03:47:21;5.80;;;4.30;;
8544;SDS011;4310;51.054;6.994;2022-08-11T03:48:24;5.45;;;4.40;;
8544;SDS011;4310;51.054;6.994;2022-08-11T03:49:32;5.55;;;4.58;;
8544;SDS011;4310;51.054;6.994;2022-08-11T03:50:45;4.90;;;4.40;;
8544;SDS011;4310;51.054;6.994;2022-08-11T03:51:49;5.65;;;4.33;;
8544;SDS011;4310;51.054;6.994;2022-08-11T03:52:57;4.73;;;4.20;;
8544;SDS011;4310;51.054;6.994;2022-08-11T03:54:07;6.37;;;4.37;;
8544;SDS011;4310;51.054;6.994;2022-08-11T03:56:41;5.87;;;4.67;;
8544;SDS011;4310;51.054;6.994;2022-08-11T03:58:04;5.75;;;4.50;;
8544;SDS011;4310;51.054;6.994;2022-08-11T03:59:19;6.67;;;4.20;;
8544;SDS011;4310;51.054;6.994;2022-08-11T04:01:53;5.15;;;4.65;;
8544;SDS011;4310;51.054;6.994;2022-08-11T04:05:57;6.53;;;4.58;;
8544;SDS011;4310;51.054;6.994;2022-08-11T04:08:29;6.00;;;4.35;;
8544;SDS011;4310;51.054;6.994;2022-08-11T04:12:43;7.12;;;5.33;;
8544;SDS011;4310;51.054;6.994;2022-08-11T04:16:55;6.67;;;5.30;;
8544;SDS011;4310;51.054;6.994;2022-08-11T04:22:21;9.05;;;5.35;;
8544;SDS011;4310;51.054;6.994;2022-08-11T04:23:34;8.27;;;5.60;;
8544;SDS011;4310;51.054;6.994;2022-08-11T04:24:43;11.15;;;6.10;;
8544;SDS011;4310;51.054;6.994;2022-08-11T04:27:26;13.60;;;5.83;;
8544;SDS011;4310;51.054;6.994;2022-08-11T04:28:43;15.68;;;5.65;;
8544;SDS011;4310;51.054;6.994;2022-08-11T04:29:56;12.05;;;5.67;;
8544;SDS011;4310;51.054;6.994;2022-08-11T04:31:07;9.38;;;5.70;;
8544;SDS011;4310;51.054;6.994;2022-08-11T04:32:19;8.40;;;5.22;;
8544;SDS011;4310;51.054;6.994;2022-08-11T04:33:37;9.38;;;6.03;;
8544;SDS011;4310;51.054;6.994;2022-08-11T04:34:53;9.83;;;5.50;;
8544;SDS011;4310;51.054;6.994;2022-08-11T04:35:59;10.55;;;5.22;;
8544;SDS011;4310;51.054;6.994;2022-08-11T04:37:08;9.15;;;5.58;;
8544;SDS011;4310;51.054;6.994;2022-08-11T04:38:33;11.63;;;5.83;;
8544;SDS011;4310;51.054;6.994;2022-08-11T04:39:53;9.60;;;5.10;;
8544;SDS011;4310;51.054;6.994;2022-08-11T04:41:05;9.30;;;5.50;;
8544;SDS011;4310;51.054;6.994;2022-08-11T04:42:10;8.50;;;5.58;;
8544;SDS011;4310;51.054;6.994;2022-08-11T04:46:29;9.05;;;5.40;;
8544;SDS011;4310;51.054;6.994;2022-08-11T04:47:42;9.48;;;5.40;;
8544;SDS011;4310;51.054;6.994;2022-08-11T04:50:36;9.38;;;5.30;;
8544;SDS011;4310;51.054;6.994;2022-08-11T04:55:07;12.13;;;5.90;;
8544;SDS011;4310;51.054;6.994;2022-08-11T04:56:27;6.33;;;5.05;;
8544;SDS011;4310;51.054;6.994;2022-08-11T04:57:52;8.23;;;5.20;;
8544;SDS011;4310;51.054;6.994;2022-08-11T04:59:26;11.22;;;5.65;;
8544;SDS011;4310;51.054;6.994;2022-08-11T05:00:51;9.18;;;5.25;;
8544;SDS011;4310;51.054;6.994;2022-08-11T05:02:32;8.43;;;5.25;;
8544;SDS011;4310;51.054;6.994;2022-08-11T05:03:42;11.65;;;5.55;;
8544;SDS011;4310;51.054;6.994;2022-08-11T05:04:48;8.45;;;4.80;;
8544;SDS011;4310;51.054;6.994;2022-08-11T05:06:13;8.63;;;4.85;;
8544;SDS011;4310;51.054;6.994;2022-08-11T05:07:25;7.95;;;4.95;;
8544;SDS011;4310;51.054;6.994;2022-08-11T05:09:55;8.35;;;5.03;;
8544;SDS011;4310;51.054;6.994;2022-08-11T05:11:22;7.17;;;4.60;;
8544;SDS011;4310;51.054;6.994;2022-08-11T05:12:28;5.90;;;4.90;;
8544;SDS011;4310;51.054;6.994;2022-08-11T05:13:34;5.70;;;4.75;;
8544;SDS011;4310;51.054;6.994;2022-08-11T05:14:56;5.03;;;4.35;;
8544;SDS011;4310;51.054;6.994;2022-08-11T05:17:37;6.97;;;4.50;;
8544;SDS011;4310;51.054;6.994;2022-08-11T05:19:19;6.60;;;4.62;;
8544;SDS011;4310;51.054;6.994;2022-08-11T05:20:44;7.58;;;4.83;;
8544;SDS011;4310;51.054;6.994;2022-08-11T05:22:07;6.40;;;4.50;;
8544;SDS011;4310;51.054;6.994;2022-08-11T05:23:29;4.75;;;4.30;;
8544;SDS011;4310;51.054;6.994;2022-08-11T05:24:55;6.03;;;4.40;;
8544;SDS011;4310;51.054;6.994;2022-08-11T05:27:32;5.80;;;4.25;;
8544;SDS011;4310;51.054;6.994;2022-08-11T05:28:52;5.47;;;3.87;;
8544;SDS011;4310;51.054;6.994;2022-08-11T05:30:14;5.00;;;4.20;;
8544;SDS011;4310;51.054;6.994;2022-08-11T05:31:37;6.22;;;4.33;;
8544;SDS011;4310;51.054;6.994;2022-08-11T05:34:12;4.85;;;4.20;;
8544;SDS011;4310;51.054;6.994;2022-08-11T05:35:37;5.92;;;4.10;;
8544;SDS011;4310;51.054;6.994;2022-08-11T05:36:42;5.17;;;3.92;;
8544;SDS011;4310;51.054;6.994;2022-08-11T05:37:45;6.47;;;4.12;;
8544;SDS011;4310;51.054;6.994;2022-08-11T05:39:10;5.65;;;4.15;;
8544;SDS011;4310;51.054;6.994;2022-08-11T05:40:30;4.97;;;4.20;;
8544;SDS011;4310;51.054;6.994;2022-08-11T05:41:55;6.70;;;4.05;;
8544;SDS011;4310;51.054;6.994;2022-08-11T05:43:15;6.58;;;4.40;;
8544;SDS011;4310;51.054;6.994;2022-08-11T05:44:37;5.15;;;4.15;;
8544;SDS011;4310;51.054;6.994;2022-08-11T05:45:59;5.20;;;4.00;;
8544;SDS011;4310;51.054;6.994;2022-08-11T05:47:23;5.53;;;3.77;;
8544;SDS011;4310;51.054;6.994;2022-08-11T05:48:44;8.95;;;4.47;;
8544;SDS011;4310;51.054;6.994;2022-08-11T05:50:08;4.85;;;4.12;;
8544;SDS011;4310;51.054;6.994;2022-08-11T05:51:33;5.67;;;3.90;;
8544;SDS011;4310;51.054;6.994;2022-08-11T05:52:54;5.30;;;3.85;;
8544;SDS011;4310;51.054;6.994;2022-08-11T05:54:17;6.90;;;4.40;;
8544;SDS011;4310;51.054;6.994;2022-08-11T05:55:39;4.62;;;4.08;;
8544;SDS011;4310;51.054;6.994;2022-08-11T05:57:01;7.33;;;4.00;;
8544;SDS011;4310;51.054;6.994;2022-08-11T05:58:06;9.33;;;4.28;;
8544;SDS011;4310;51.054;6.994;2022-08-11T05:59:13;7.37;;;3.80;;
8544;SDS011;4310;51.054;6.994;2022-08-11T06:00:18;5.67;;;3.80;;
8544;SDS011;4310;51.054;6.994;2022-08-11T06:01:24;6.87;;;4.17;;
8544;SDS011;4310;51.054;6.994;2022-08-11T06:02:28;5.50;;;4.00;;
8544;SDS011;4310;51.054;6.994;2022-08-11T06:03:33;4.15;;;3.58;;
8544;SDS011;4310;51.054;6.994;2022-08-11T06:04:39;7.33;;;3.80;;
8544;SDS011;4310;51.054;6.994;2022-08-11T06:05:43;5.33;;;3.80;;
8544;SDS011;4310;51.054;6.994;2022-08-11T06:06:51;6.00;;;3.85;;
8544;SDS011;4310;51.054;6.994;2022-08-11T06:07:55;5.87;;;4.03;;
8544;SDS011;4310;51.054;6.994;2022-08-11T06:08:59;7.45;;;4.03;;
8544;SDS011;4310;51.054;6.994;2022-08-11T06:10:04;6.37;;;4.00;;
8544;SDS011;4310;51.054;6.994;2022-08-11T06:11:08;4.62;;;3.67;;
8544;SDS011;4310;51.054;6.994;2022-08-11T06:12:16;5.53;;;3.80;;
8544;SDS011;4310;51.054;6.994;2022-08-11T06:13:19;5.20;;;3.87;;
8544;SDS011;4310;51.054;6.994;2022-08-11T06:14:25;5.78;;;3.60;;
8544;SDS011;4310;51.054;6.994;2022-08-11T06:15:30;5.80;;;3.47;;
8544;SDS011;4310;51.054;6.994;2022-08-11T06:16:35;4.90;;;3.52;;
8544;SDS011;4310;51.054;6.994;2022-08-11T06:17:43;8.03;;;4.22;;
8544;SDS011;4310;51.054;6.994;2022-08-11T06:18:48;5.22;;;3.45;;
8544;SDS011;4310;51.054;6.994;2022-08-11T06:19:57;3.75;;;3.40;;
8544;SDS011;4310;51.054;6.994;2022-08-11T06:20:58;5.22;;;3.35;;
8544;SDS011;4310;51.054;6.994;2022-08-11T06:22:03;5.60;;;3.40;;
8544;SDS011;4310;51.054;6.994;2022-08-11T06:24:18;3.42;;;3.10;;
8544;SDS011;4310;51.054;6.994;2022-08-11T06:25:22;4.03;;;3.37;;
8544;SDS011;4310;51.054;6.994;2022-08-11T06:26:28;3.58;;;3.27;;
8544;SDS011;4310;51.054;6.994;2022-08-11T06:27:32;4.45;;;3.10;;
8544;SDS011;4310;51.054;6.994;2022-08-11T06:28:37;5.95;;;3.47;;
8544;SDS011;4310;51.054;6.994;2022-08-11T06:29:45;6.70;;;3.70;;
8544;SDS011;4310;51.054;6.994;2022-08-11T06:30:50;6.67;;;3.75;;
8544;SDS011;4310;51.054;6.994;2022-08-11T06:31:54;4.53;;;3.50;;
8544;SDS011;4310;51.054;6.994;2022-08-11T06:32:59;4.12;;;3.47;;
8544;SDS011;4310;51.054;6.994;2022-08-11T06:34:06;5.47;;;3.50;;
8544;SDS011;4310;51.054;6.994;2022-08-11T06:35:14;6.17;;;4.00;;
8544;SDS011;4310;51.054;6.994;2022-08-11T06:37:34;6.75;;;4.00;;
8544;SDS011;4310;51.054;6.994;2022-08-11T06:38:45;6.22;;;3.70;;
8544;SDS011;4310;51.054;6.994;2022-08-11T06:40:56;8.50;;;3.60;;
8544;SDS011;4310;51.054;6.994;2022-08-11T06:43:42;5.28;;;3.27;;
8544;SDS011;4310;51.054;6.994;2022-08-11T06:44:46;4.70;;;3.42;;
8544;SDS011;4310;51.054;6.994;2022-08-11T06:45:52;5.10;;;3.60;;
8544;SDS011;4310;51.054;6.994;2022-08-11T06:46:56;3.80;;;3.45;;
8544;SDS011;4310;51.054;6.994;2022-08-11T06:48:02;3.85;;;3.30;;
8544;SDS011;4310;51.054;6.994;2022-08-11T06:49:08;7.42;;;3.50;;
8544;SDS011;4310;51.054;6.994;2022-08-11T06:50:17;4.83;;;3.27;;
8544;SDS011;4310;51.054;6.994;2022-08-11T06:51:40;5.20;;;3.20;;
8544;SDS011;4310;51.054;6.994;2022-08-11T06:52:45;5.25;;;3.52;;
8544;SDS011;4310;51.054;6.994;2022-08-11T06:53:50;4.43;;;3.00;;
8544;SDS011;4310;51.054;6.994;2022-08-11T06:54:54;5.30;;;3.40;;
8544;SDS011;4310;51.054;6.994;2022-08-11T06:56:00;5.37;;;3.60;;
8544;SDS011;4310;51.054;6.994;2022-08-11T06:57:23;4.65;;;3.33;;
8544;SDS011;4310;51.054;6.994;2022-08-11T06:59:56;4.87;;;3.20;;
8544;SDS011;4310;51.054;6.994;2022-08-11T07:01:29;4.60;;;3.50;;
8544;SDS011;4310;51.054;6.994;2022-08-11T07:03:38;5.72;;;3.50;;
8544;SDS011;4310;51.054;6.994;2022-08-11T07:04:42;4.50;;;3.00;;
8544;SDS011;4310;51.054;6.994;2022-08-11T07:05:48;4.40;;;2.70;;
8544;SDS011;4310;51.054;6.994;2022-08-11T07:07:00;5.05;;;3.00;;
8544;SDS011;4310;51.054;6.994;2022-08-11T07:10:22;3.70;;;3.30;;
8544;SDS011;4310;51.054;6.994;2022-08-11T07:11:53;4.17;;;2.83;;
8544;SDS011;4310;51.054;6.994;2022-08-11T07:13:15;8.03;;;3.12;;
8544;SDS011;4310;51.054;6.994;2022-08-11T07:14:40;5.05;;;2.90;;
8544;SDS011;4310;51.054;6.994;2022-08-11T07:16:01;3.58;;;2.85;;
8544;SDS011;4310;51.054;6.994;2022-08-11T07:17:05;5.20;;;3.00;;
8544;SDS011;4310;51.054;6.994;2022-08-11T07:19:23;4.40;;;2.70;;
8544;SDS011;4310;51.054;6.994;2022-08-11T07:20:45;4.58;;;3.00;;
8544;SDS011;4310;51.054;6.994;2022-08-11T07:22:07;4.80;;;2.90;;
8544;SDS011;4310;51.054;6.994;2022-08-11T07:23:30;3.75;;;2.85;;
8544;SDS011;4310;51.054;6.994;2022-08-11T07:26:05;6.65;;;3.22;;
8544;SDS011;4310;51.054;6.994;2022-08-11T07:27:29;4.05;;;2.95;;
8544;SDS011;4310;51.054;6.994;2022-08-11T07:28:50;3.72;;;2.80;;
8544;SDS011;4310;51.054;6.994;2022-08-11T07:29:57;4.35;;;2.80;;
8544;SDS011;4310;51.054;6.994;2022-08-11T07:32:16;3.27;;;2.58;;
8544;SDS011;4310;51.054;6.994;2022-08-11T07:33:21;3.87;;;3.02;;
8544;SDS011;4310;51.054;6.994;2022-08-11T07:34:26;4.28;;;2.80;;
8544;SDS011;4310;51.054;6.994;2022-08-11T07:36:44;3.60;;;2.90;;
8544;SDS011;4310;51.054;6.994;2022-08-11T07:37:52;3.40;;;2.52;;
8544;SDS011;4310;51.054;6.994;2022-08-11T07:38:55;2.98;;;2.67;;
8544;SDS011;4310;51.054;6.994;2022-08-11T07:40:00;3.55;;;2.70;;
8544;SDS011;4310;51.054;6.994;2022-08-11T07:41:05;4.47;;;2.77;;
8544;SDS011;4310;51.054;6.994;2022-08-11T07:42:12;3.55;;;2.67;;
8544;SDS011;4310;51.054;6.994;2022-08-11T07:43:16;4.37;;;2.65;;
8544;SDS011;4310;51.054;6.994;2022-08-11T07:44:21;4.08;;;2.55;;
8544;SDS011;4310;51.054;6.994;2022-08-11T07:45:27;4.80;;;2.77;;
8544;SDS011;4310;51.054;6.994;2022-08-11T07:46:49;5.40;;;2.52;;
8544;SDS011;4310;51.054;6.994;2022-08-11T07:48:11;4.42;;;3.00;;
8544;SDS011;4310;51.054;6.994;2022-08-11T07:49:34;6.35;;;2.80;;
8544;SDS011;4310;51.054;6.994;2022-08-11T07:50:56;5.53;;;2.80;;
8544;SDS011;4310;51.054;6.994;2022-08-11T07:52:19;4.17;;;2.95;;
8544;SDS011;4310;51.054;6.994;2022-08-11T07:53:30;4.78;;;2.55;;
8544;SDS011;4310;51.054;6.994;2022-08-11T07:54:34;5.15;;;3.05;;
8544;SDS011;4310;51.054;6.994;2022-08-11T07:55:38;3.10;;;2.90;;
8544;SDS011;4310;51.054;6.994;2022-08-11T07:57:54;4.65;;;2.90;;
8544;SDS011;4310;51.054;6.994;2022-08-11T07:59:17;6.47;;;3.00;;
8544;SDS011;4310;51.054;6.994;2022-08-11T08:00:47;4.03;;;2.72;;
8544;SDS011;4310;51.054;6.994;2022-08-11T08:02:02;4.35;;;2.90;;
8544;SDS011;4310;51.054;6.994;2022-08-11T08:03:24;4.60;;;3.10;;
8544;SDS011;4310;51.054;6.994;2022-08-11T08:04:45;3.00;;;2.70;;
8544;SDS011;4310;51.054;6.994;2022-08-11T08:06:07;4.12;;;2.75;;
8544;SDS011;4310;51.054;6.994;2022-08-11T08:07:29;3.87;;;2.70;;
8544;SDS011;4310;51.054;6.994;2022-08-11T08:08:50;4.67;;;3.00;;
8544;SDS011;4310;51.054;6.994;2022-08-11T08:10:12;3.83;;;2.85;;
8544;SDS011;4310;51.054;6.994;2022-08-11T08:11:33;3.02;;;2.72;;
8544;SDS011;4310;51.054;6.994;2022-08-11T08:12:55;5.05;;;2.70;;
8544;SDS011;4310;51.054;6.994;2022-08-11T08:14:17;3.70;;;2.90;;
8544;SDS011;4310;51.054;6.994;2022-08-11T08:15:39;3.15;;;2.95;;
8544;SDS011;4310;51.054;6.994;2022-08-11T08:17:01;3.37;;;2.80;;
8544;SDS011;4310;51.054;6.994;2022-08-11T08:18:22;3.52;;;2.80;;
8544;SDS011;4310;51.054;6.994;2022-08-11T08:19:27;2.60;;;2.40;;
8544;SDS011;4310;51.054;6.994;2022-08-11T08:20:32;4.05;;;2.55;;
8544;SDS011;4310;51.054;6.994;2022-08-11T08:21:36;3.02;;;2.52;;
8544;SDS011;4310;51.054;6.994;2022-08-11T08:22:41;3.77;;;2.58;;
8544;SDS011;4310;51.054;6.994;2022-08-11T08:23:45;5.12;;;2.75;;
8544;SDS011;4310;51.054;6.994;2022-08-11T08:24:49;2.58;;;2.37;;
8544;SDS011;4310;51.054;6.994;2022-08-11T08:25:53;3.75;;;2.33;;
8544;SDS011;4310;51.054;6.994;2022-08-11T08:26:58;2.90;;;2.60;;
8544;SDS011;4310;51.054;6.994;2022-08-11T08:28:04;2.80;;;2.50;;
8544;SDS011;4310;51.054;6.994;2022-08-11T08:29:08;3.00;;;2.70;;
8544;SDS011;4310;51.054;6.994;2022-08-11T08:30:29;4.50;;;2.60;;
8544;SDS011;4310;51.054;6.994;2022-08-11T08:31:52;3.53;;;2.60;;
8544;SDS011;4310;51.054;6.994;2022-08-11T08:32:56;3.60;;;2.55;;
8544;SDS011;4310;51.054;6.994;2022-08-11T08:34:02;5.30;;;2.98;;
8544;SDS011;4310;51.054;6.994;2022-08-11T08:36:18;5.60;;;2.70;;
8544;SDS011;4310;51.054;6.994;2022-08-11T08:37:23;4.70;;;2.70;;
8544;SDS011;4310;51.054;6.994;2022-08-11T08:38:29;2.75;;;2.55;;
8544;SDS011;4310;51.054;6.994;2022-08-11T08:39:32;3.50;;;2.70;;
8544;SDS011;4310;51.054;6.994;2022-08-11T08:40:38;3.72;;;2.70;;
8544;SDS011;4310;51.054;6.994;2022-08-11T08:41:43;2.75;;;2.50;;
8544;SDS011;4310;51.054;6.994;2022-08-11T08:44:03;2.80;;;2.50;;
8544;SDS011;4310;51.054;6.994;2022-08-11T08:45:06;4.58;;;2.52;;
8544;SDS011;4310;51.054;6.994;2022-08-11T08:46:10;4.83;;;2.45;;
8544;SDS011;4310;51.054;6.994;2022-08-11T08:47:16;3.05;;;2.60;;
8544;SDS011;4310;51.054;6.994;2022-08-11T08:48:20;2.60;;;2.40;;
8544;SDS011;4310;51.054;6.994;2022-08-11T08:49:29;3.05;;;2.40;;
8544;SDS011;4310;51.054;6.994;2022-08-11T08:50:32;5.53;;;2.62;;
8544;SDS011;4310;51.054;6.994;2022-08-11T08:53:10;3.45;;;2.50;;
8544;SDS011;4310;51.054;6.994;2022-08-11T08:54:15;3.60;;;2.33;;